Current Weather

Laurence G Hanscom Fld Apt

Laurence G Hanscom Fld Apt, Massachusetts (KBED)

Report from: Thursday, May 19, 2022 1:51 PM EDT
Current time: Thursday, May 19, 2022 2:25 PM EDT

Nearby weather
Weather history
Weather forecast

Present weatherMist
Temperature12.8°C (55.0°F)
Dew point11.7°C (53.1°F)
Winds 8 kts (4.1 m/s, 9.2 mph) South (170°)
Visibility2 mi. (3.2 km)
Clouds Ceiling: Broken clouds 800 ft. (244 m)
Altimeter29.73 in.Hg (1007 mB)
Precipitiation0.02 in. (1 mm)
Precip. events Rain began 1:00 PM
Rain ended 1:30 PM
Precip last 3 hours0.04 in. (1 mm)
Relative humidity93 %
Density altitude151 ft. (46 m)
Sea-level pressure100.8 kPa (1008 mB, 29.77 in.Hg)
Max temp last 6 hours15.0°C (59.0°F)
Min temp last 6 hours12.2°C (54.0°F)
Remarks Automated weather observing station with precipitation discriminator
Pressure falling more quickly
Flight conditions Instrument Meteorological Conditions
Raw dataKBED 191751Z 17008KT 2SM BR BKN008 13/12 A2973 RMK AO2 RAB00E30 SLP081 P0002 60004 T01280117 10150 20122 58029
An error has occurred. This application may no longer respond until reloaded. Reload 🗙